createdAt,value
2022-07-25T00:00:37.627Z,21.60
2022-07-25T00:03:05.951Z,21.70
2022-07-25T00:05:38.164Z,21.80
2022-07-25T00:08:06.246Z,21.70
2022-07-25T00:10:33.412Z,21.60
2022-07-25T00:13:00.637Z,21.60
2022-07-25T00:15:27.833Z,21.50
2022-07-25T00:17:54.979Z,21.40
2022-07-25T00:20:22.162Z,21.40
2022-07-25T00:22:49.237Z,21.20
2022-07-25T00:25:16.360Z,21.00
2022-07-25T00:27:43.507Z,21.00
2022-07-25T00:30:11.097Z,21.00
2022-07-25T00:32:40.913Z,21.00
2022-07-25T00:35:08.495Z,21.00
2022-07-25T00:37:35.782Z,20.90
2022-07-25T00:40:06.210Z,21.10
2022-07-25T00:42:33.890Z,21.00
2022-07-25T00:45:01.218Z,21.00
2022-07-25T00:47:28.466Z,20.80
2022-07-25T00:49:55.708Z,20.60
2022-07-25T00:52:24.643Z,20.60
2022-07-25T00:54:51.937Z,20.60
2022-07-25T00:57:19.141Z,20.80
2022-07-25T00:59:46.473Z,20.80
2022-07-25T01:02:14.312Z,20.90
2022-07-25T01:04:41.552Z,20.80
2022-07-25T01:07:08.654Z,20.60
2022-07-25T01:09:36.590Z,20.40
2022-07-25T01:12:04.159Z,20.50
2022-07-25T01:14:32.690Z,20.70
2022-07-25T01:16:59.979Z,20.80
2022-07-25T01:19:30.397Z,20.60
2022-07-25T01:21:57.470Z,20.50
2022-07-25T01:24:24.593Z,20.30
2022-07-25T01:26:51.884Z,20.30
2022-07-25T01:29:19.074Z,20.30
2022-07-25T01:31:46.263Z,20.50
2022-07-25T01:34:13.594Z,20.60
2022-07-25T01:36:40.748Z,20.80
2022-07-25T01:39:07.936Z,20.70
2022-07-25T01:41:35.273Z,20.50
2022-07-25T01:44:02.504Z,20.40
2022-07-25T01:46:30.038Z,20.40
2022-07-25T01:48:57.345Z,20.30
2022-07-25T01:51:26.463Z,20.20
2022-07-25T01:53:53.734Z,20.20
2022-07-25T01:56:20.939Z,20.20
2022-07-25T01:58:50.120Z,20.30
2022-07-25T02:01:17.306Z,20.30
2022-07-25T02:03:46.508Z,20.30
2022-07-25T02:06:13.769Z,20.50
2022-07-25T02:08:42.105Z,20.40
2022-07-25T02:11:09.275Z,20.20
2022-07-25T02:13:36.387Z,20.40
2022-07-25T02:16:03.541Z,20.60
2022-07-25T02:18:31.002Z,20.70
2022-07-25T02:20:58.191Z,20.60
2022-07-25T02:23:25.499Z,20.70
2022-07-25T02:25:52.680Z,20.80
2022-07-25T02:28:19.801Z,20.90
2022-07-25T02:30:46.910Z,20.80
2022-07-25T02:33:14.175Z,20.70
2022-07-25T02:35:41.575Z,20.60
2022-07-25T02:38:08.666Z,20.80
2022-07-25T02:40:55.068Z,20.90
2022-07-25T02:43:23.047Z,20.30
2022-07-25T02:45:50.618Z,20.80
2022-07-25T02:48:17.954Z,20.90
2022-07-25T02:50:45.231Z,20.90
2022-07-25T02:53:12.447Z,21.00
2022-07-25T02:55:39.701Z,21.20
2022-07-25T02:58:06.924Z,21.30
2022-07-25T03:00:34.222Z,21.10
2022-07-25T03:03:01.403Z,21.20
2022-07-25T03:05:28.553Z,21.20
2022-07-25T03:07:55.858Z,21.30
2022-07-25T03:10:23.003Z,21.30
2022-07-25T03:12:50.214Z,21.50
2022-07-25T03:15:17.503Z,21.40
2022-07-25T03:17:44.767Z,21.40
2022-07-25T03:20:12.558Z,21.40
2022-07-25T03:22:40.554Z,21.40
2022-07-25T03:25:21.445Z,21.60
2022-07-25T03:27:50.971Z,21.90
2022-07-25T03:30:18.326Z,22.00
2022-07-25T03:32:45.995Z,21.90
2022-07-25T03:35:13.213Z,22.10
2022-07-25T03:37:40.296Z,22.20
2022-07-25T03:40:08.197Z,22.10
2022-07-25T03:42:35.805Z,22.30
2022-07-25T03:45:03.581Z,22.10
2022-07-25T03:47:31.311Z,22.20
2022-07-25T03:50:03.206Z,22.60
2022-07-25T03:52:30.989Z,22.50
2022-07-25T03:54:58.163Z,22.40
2022-07-25T03:57:25.307Z,22.40
2022-07-25T03:59:52.510Z,22.70
2022-07-25T04:02:19.759Z,22.50
2022-07-25T04:04:47.068Z,22.50
2022-07-25T04:07:14.148Z,22.80
2022-07-25T04:09:42.510Z,22.90
2022-07-25T04:12:09.742Z,22.90
2022-07-25T04:14:36.955Z,22.80
2022-07-25T04:17:04.653Z,22.70
2022-07-25T04:19:31.918Z,22.70
2022-07-25T04:22:00.192Z,23.10
2022-07-25T04:24:27.437Z,23.40
2022-07-25T04:26:57.038Z,22.90
2022-07-25T04:29:24.206Z,23.00
2022-07-25T04:31:51.545Z,22.90
2022-07-25T04:34:18.745Z,23.30
2022-07-25T04:36:45.990Z,23.40
2022-07-25T04:39:13.060Z,23.50
2022-07-25T04:41:40.303Z,23.50
2022-07-25T04:44:08.551Z,23.20
2022-07-25T04:46:36.235Z,23.70
2022-07-25T04:49:03.519Z,23.50
2022-07-25T04:51:30.670Z,23.20
2022-07-25T04:53:57.798Z,23.30
2022-07-25T04:56:25.164Z,23.40
2022-07-25T04:58:52.358Z,23.60
2022-07-25T05:01:19.735Z,23.70
2022-07-25T05:03:50.282Z,24.00
2022-07-25T05:06:19.141Z,23.80
2022-07-25T05:08:46.437Z,23.90
2022-07-25T05:11:13.733Z,23.60
2022-07-25T05:13:40.878Z,24.00
2022-07-25T05:16:08.248Z,24.30
2022-07-25T05:18:35.544Z,24.40
2022-07-25T05:21:02.749Z,24.40
2022-07-25T05:23:29.882Z,24.20
2022-07-25T05:25:57.141Z,24.30
2022-07-25T05:28:24.263Z,24.50
2022-07-25T05:30:59.510Z,24.60
2022-07-25T05:33:27.488Z,24.70
2022-07-25T05:35:54.679Z,24.60
2022-07-25T05:38:21.900Z,25.00
2022-07-25T05:40:49.509Z,25.20
2022-07-25T05:43:16.627Z,25.50
2022-07-25T05:45:44.319Z,25.30
2022-07-25T05:48:11.427Z,24.60
2022-07-25T05:50:38.512Z,24.20
2022-07-25T05:53:05.677Z,24.40
2022-07-25T05:55:33.237Z,24.80
2022-07-25T05:58:02.434Z,25.50
2022-07-25T06:00:31.176Z,25.30
2022-07-25T06:03:00.495Z,25.50
2022-07-25T06:05:28.342Z,25.40
2022-07-25T06:07:55.650Z,25.30
2022-07-25T06:10:23.233Z,25.20
2022-07-25T06:12:50.322Z,25.00
2022-07-25T06:15:22.928Z,24.90
2022-07-25T06:17:54.864Z,25.40
2022-07-25T06:20:22.246Z,25.60
2022-07-25T06:22:49.416Z,25.40
2022-07-25T06:25:16.803Z,25.30
2022-07-25T06:27:43.954Z,25.40
2022-07-25T06:30:19.596Z,25.30
2022-07-25T06:32:50.363Z,25.90
2022-07-25T06:35:18.538Z,25.90
2022-07-25T06:37:45.788Z,25.80
2022-07-25T06:40:24.930Z,25.40
2022-07-25T06:42:52.700Z,25.70
2022-07-25T06:45:20.245Z,26.70
2022-07-25T06:47:47.356Z,26.80
2022-07-25T06:50:18.709Z,26.40
2022-07-25T06:52:48.623Z,26.80
2022-07-25T06:55:16.253Z,27.40
2022-07-25T06:57:44.027Z,27.30
2022-07-25T07:00:13.568Z,26.80
2022-07-25T07:02:54.413Z,26.80
2022-07-25T07:05:22.122Z,26.40
2022-07-25T07:07:49.471Z,25.90
2022-07-25T07:10:18.231Z,26.10
2022-07-25T07:12:46.436Z,26.00
2022-07-25T07:15:13.987Z,25.80
2022-07-25T07:17:41.257Z,26.20
2022-07-25T07:20:09.797Z,26.30
2022-07-25T07:22:48.173Z,26.10
2022-07-25T07:25:16.661Z,26.60
2022-07-25T07:27:45.106Z,26.90
2022-07-25T07:30:14.971Z,26.80
2022-07-25T07:32:43.253Z,25.80
2022-07-25T07:35:11.453Z,25.60
2022-07-25T07:37:43.407Z,25.60
2022-07-25T07:40:18.111Z,25.90
2022-07-25T07:42:47.706Z,25.90
2022-07-25T07:45:23.483Z,27.00
2022-07-25T07:47:52.138Z,27.00
2022-07-25T07:50:22.401Z,27.00
2022-07-25T07:52:50.799Z,27.00
2022-07-25T07:55:36.598Z,27.70
2022-07-25T07:58:04.805Z,27.70
2022-07-25T08:00:32.237Z,27.60
2022-07-25T08:03:00.216Z,28.10
2022-07-25T08:05:33.877Z,26.80
2022-07-25T08:08:01.800Z,26.40
2022-07-25T08:10:32.127Z,27.30
2022-07-25T08:13:00.266Z,27.50
2022-07-25T08:15:28.145Z,27.50
2022-07-25T08:17:55.282Z,27.10
2022-07-25T08:20:39.116Z,27.30
2022-07-25T08:23:07.032Z,27.70
2022-07-25T08:25:35.579Z,27.70
2022-07-25T08:28:03.277Z,27.40
2022-07-25T08:30:30.825Z,27.30
2022-07-25T08:33:00.298Z,27.50
2022-07-25T08:35:29.809Z,28.00
2022-07-25T08:37:57.803Z,28.60
2022-07-25T08:40:26.745Z,30.30
2022-07-25T08:42:55.239Z,29.90
2022-07-25T08:45:23.592Z,30.10
2022-07-25T08:47:52.861Z,29.50
2022-07-25T08:50:22.914Z,28.80
2022-07-25T08:52:57.464Z,27.90
2022-07-25T08:55:37.513Z,27.10
2022-07-25T08:58:04.669Z,26.80
2022-07-25T09:00:35.078Z,26.80
2022-07-25T09:03:06.528Z,26.90
2022-07-25T09:05:36.954Z,28.10
2022-07-25T09:08:17.433Z,28.20
2022-07-25T09:10:53.077Z,28.40
2022-07-25T09:13:22.516Z,27.80
2022-07-25T09:15:58.662Z,28.10
2022-07-25T09:18:28.390Z,28.80
2022-07-25T09:20:59.195Z,29.10
2022-07-25T09:23:34.413Z,29.00
2022-07-25T09:26:08.982Z,27.70
2022-07-25T09:28:51.540Z,27.60
2022-07-25T09:31:21.890Z,28.70
2022-07-25T09:33:52.873Z,29.90
2022-07-25T09:36:20.159Z,30.60
2022-07-25T09:39:01.589Z,30.00
2022-07-25T09:41:45.519Z,30.00
2022-07-25T09:44:18.333Z,29.60
2022-07-25T09:46:45.555Z,28.50
2022-07-25T09:49:15.530Z,27.70
2022-07-25T09:51:43.880Z,28.10
2022-07-25T09:54:11.135Z,29.10
2022-07-25T09:56:38.390Z,29.10
2022-07-25T09:59:06.225Z,28.90
2022-07-25T10:01:41.901Z,29.70
2022-07-25T10:05:04.447Z,29.70
2022-07-25T10:07:33.651Z,27.90
2022-07-25T10:10:00.993Z,27.70
2022-07-25T10:12:28.496Z,27.70
2022-07-25T10:15:13.825Z,28.30
2022-07-25T10:17:42.105Z,30.80
2022-07-25T10:20:10.489Z,30.00
2022-07-25T10:22:58.672Z,29.20
2022-07-25T10:25:26.645Z,30.60
2022-07-25T10:28:03.828Z,29.70
2022-07-25T10:30:39.681Z,30.80
2022-07-25T10:33:21.485Z,30.70
2022-07-25T10:35:48.818Z,31.30
2022-07-25T10:38:25.302Z,29.60
2022-07-25T10:40:52.840Z,29.10
2022-07-25T10:43:22.476Z,30.40
2022-07-25T10:45:58.435Z,31.90
2022-07-25T10:48:28.281Z,31.80
2022-07-25T10:51:10.225Z,31.20
2022-07-25T10:53:46.131Z,30.50
2022-07-25T10:56:22.253Z,32.90
2022-07-25T10:58:54.185Z,34.00
2022-07-25T11:01:21.305Z,32.20
2022-07-25T11:03:49.536Z,31.40
2022-07-25T11:06:18.024Z,31.20
2022-07-25T11:08:45.913Z,28.80
2022-07-25T11:11:13.376Z,29.40
2022-07-25T11:13:42.137Z,28.50
2022-07-25T11:16:10.103Z,28.40
2022-07-25T11:18:39.998Z,30.40
2022-07-25T11:21:09.669Z,34.40
2022-07-25T11:23:37.207Z,34.60
2022-07-25T11:26:06.315Z,34.40
2022-07-25T11:28:41.214Z,32.90
2022-07-25T11:31:08.812Z,30.60
2022-07-25T11:33:38.857Z,32.80
2022-07-25T11:36:07.087Z,33.20
2022-07-25T11:38:36.811Z,35.30
2022-07-25T11:41:04.408Z,35.50
2022-07-25T11:43:31.742Z,34.80
2022-07-25T11:46:01.333Z,35.60
2022-07-25T11:48:32.925Z,33.30
2022-07-25T11:51:18.113Z,31.90
2022-07-25T11:53:52.860Z,29.80
2022-07-25T11:59:10.383Z,34.00
2022-07-25T12:01:41.450Z,35.30
2022-07-25T12:04:16.689Z,32.70
2022-07-25T12:06:45.397Z,31.00
2022-07-25T12:09:19.275Z,34.60
2022-07-25T12:11:48.796Z,36.00
2022-07-25T12:14:16.831Z,37.10
2022-07-25T12:16:47.556Z,37.10
2022-07-25T12:19:22.292Z,33.50
2022-07-25T12:21:49.606Z,35.50
2022-07-25T12:24:16.762Z,35.70
2022-07-25T12:26:44.003Z,35.30
2022-07-25T12:29:11.258Z,36.70
2022-07-25T12:31:38.404Z,37.40
2022-07-25T12:34:05.655Z,35.80
2022-07-25T12:36:34.512Z,34.00
2022-07-25T12:39:02.353Z,34.40
2022-07-25T12:41:29.522Z,36.80
2022-07-25T12:43:59.008Z,34.40
2022-07-25T12:46:26.332Z,34.80
2022-07-25T12:48:53.753Z,36.60
2022-07-25T12:51:21.005Z,34.90
2022-07-25T12:53:48.167Z,33.80
2022-07-25T12:56:16.081Z,34.40
2022-07-25T12:58:43.302Z,35.20
2022-07-25T13:01:10.618Z,34.40
2022-07-25T13:03:41.479Z,35.70
2022-07-25T13:06:08.790Z,35.80
2022-07-25T13:08:37.934Z,37.00
2022-07-25T13:11:05.337Z,35.50
2022-07-25T13:13:32.525Z,34.80
2022-07-25T13:15:59.782Z,36.40
2022-07-25T13:18:27.032Z,36.30
2022-07-25T13:20:54.298Z,34.80
2022-07-25T13:23:21.707Z,34.30
2022-07-25T13:25:48.960Z,33.40
2022-07-25T13:28:17.001Z,34.20
2022-07-25T13:30:44.282Z,35.40
2022-07-25T13:33:11.600Z,34.50
2022-07-25T13:35:39.808Z,35.30
2022-07-25T13:38:11.112Z,34.40
2022-07-25T13:40:42.190Z,35.70
2022-07-25T13:43:10.819Z,36.00
2022-07-25T13:45:38.479Z,37.50
2022-07-25T13:48:28.504Z,38.00
2022-07-25T13:50:53.157Z,36.90
2022-07-25T13:53:22.881Z,36.50
2022-07-25T13:55:51.942Z,35.10
2022-07-25T13:58:19.424Z,35.50
2022-07-25T14:00:46.879Z,34.20
2022-07-25T14:03:14.160Z,35.90
2022-07-25T14:05:41.637Z,35.20
2022-07-25T14:08:08.929Z,34.50
2022-07-25T14:10:36.208Z,33.70
2022-07-25T14:13:03.344Z,33.80
2022-07-25T14:15:30.907Z,31.80
2022-07-25T14:17:58.233Z,32.80
2022-07-25T14:20:25.545Z,33.80
2022-07-25T14:22:52.927Z,33.90
2022-07-25T14:25:20.119Z,32.80
2022-07-25T14:27:48.075Z,31.50
2022-07-25T14:30:15.355Z,31.10
2022-07-25T14:32:42.460Z,30.00
2022-07-25T14:35:11.137Z,30.10
2022-07-25T14:37:38.568Z,29.60
2022-07-25T14:40:06.808Z,30.10
2022-07-25T14:42:34.095Z,29.90
2022-07-25T14:45:01.315Z,29.40
2022-07-25T14:47:28.804Z,29.10
2022-07-25T14:49:56.154Z,29.30
2022-07-25T14:52:23.657Z,29.00
2022-07-25T14:54:50.829Z,29.20
2022-07-25T14:57:18.096Z,29.00
2022-07-25T14:59:45.475Z,28.80
2022-07-25T15:02:12.809Z,28.60
2022-07-25T15:04:40.146Z,28.40
2022-07-25T15:07:07.658Z,28.80
2022-07-25T15:09:34.985Z,28.60
2022-07-25T15:12:02.452Z,28.80
2022-07-25T15:14:29.731Z,28.60
2022-07-25T15:16:56.888Z,28.10
2022-07-25T15:19:24.163Z,27.70
2022-07-25T15:21:53.250Z,27.50
2022-07-25T15:24:21.875Z,28.40
2022-07-25T15:26:50.694Z,28.80
2022-07-25T15:29:20.772Z,28.50
2022-07-25T15:31:49.069Z,27.90
2022-07-25T15:34:16.315Z,28.00
2022-07-25T15:36:43.585Z,28.60
2022-07-25T15:39:11.180Z,28.70
2022-07-25T15:41:38.581Z,28.70
2022-07-25T15:44:05.848Z,28.40
2022-07-25T15:46:33.212Z,28.30
2022-07-25T15:49:00.641Z,28.10
2022-07-25T15:51:27.882Z,28.40
2022-07-25T15:53:55.039Z,27.60
2022-07-25T15:56:22.300Z,26.70
2022-07-25T15:58:49.980Z,26.50
2022-07-25T16:01:17.304Z,25.40
2022-07-25T16:03:44.666Z,25.10
2022-07-25T16:06:15.598Z,24.80
2022-07-25T16:08:49.148Z,24.60
2022-07-25T16:11:16.480Z,24.40
2022-07-25T16:13:52.967Z,24.10
2022-07-25T16:16:22.189Z,24.10
2022-07-25T16:18:54.742Z,24.40
2022-07-25T16:21:27.094Z,24.20
2022-07-25T16:23:59.705Z,24.20
2022-07-25T16:26:34.607Z,24.20
2022-07-25T16:29:01.731Z,24.30
2022-07-25T16:31:29.237Z,23.60
2022-07-25T16:33:58.230Z,23.40
2022-07-25T16:36:29.305Z,23.70
2022-07-25T16:39:00.222Z,23.60
2022-07-25T16:41:36.458Z,23.60
2022-07-25T16:44:03.685Z,23.80
2022-07-25T16:46:30.853Z,23.40
2022-07-25T16:48:58.181Z,23.20
2022-07-25T16:51:25.413Z,23.10
2022-07-25T16:53:52.585Z,23.30
2022-07-25T16:56:23.956Z,23.60
2022-07-25T16:58:51.397Z,23.60
2022-07-25T17:01:18.974Z,23.20
2022-07-25T17:03:58.284Z,23.40
2022-07-25T17:06:25.757Z,23.40
2022-07-25T17:08:53.008Z,23.10
2022-07-25T17:11:20.331Z,23.30
2022-07-25T17:13:47.498Z,23.00
2022-07-25T17:16:14.967Z,22.90
2022-07-25T17:18:42.123Z,23.20
2022-07-25T17:21:09.784Z,23.00
2022-07-25T17:23:37.301Z,22.90
2022-07-25T17:26:05.547Z,23.20
2022-07-25T17:28:32.940Z,23.30
2022-07-25T17:31:00.742Z,23.20
2022-07-25T17:33:28.486Z,23.30
2022-07-25T17:35:55.629Z,23.30
2022-07-25T17:38:26.954Z,22.90
2022-07-25T17:40:55.662Z,22.80
2022-07-25T17:43:22.926Z,22.70
2022-07-25T17:45:50.356Z,22.60
2022-07-25T17:48:17.507Z,22.60
2022-07-25T17:50:45.493Z,22.60
2022-07-25T17:53:13.806Z,22.50
2022-07-25T17:58:25.878Z,23.10
2022-07-25T18:00:55.842Z,23.10
2022-07-25T18:03:27.702Z,22.90
2022-07-25T18:05:56.088Z,22.70
2022-07-25T18:08:23.601Z,22.60
2022-07-25T18:10:51.170Z,21.60
2022-07-25T18:13:19.027Z,22.40
2022-07-25T18:15:46.923Z,22.60
2022-07-25T18:18:20.163Z,22.50
2022-07-25T18:20:48.164Z,22.30
2022-07-25T18:23:15.330Z,22.30
2022-07-25T18:25:44.615Z,22.40
2022-07-25T18:28:12.720Z,22.90
2022-07-25T18:30:40.156Z,22.60
2022-07-25T18:33:07.921Z,22.70
2022-07-25T18:35:35.266Z,22.50
2022-07-25T18:38:02.664Z,22.70
2022-07-25T18:40:29.908Z,22.60
2022-07-25T18:42:57.045Z,22.50
2022-07-25T18:45:24.360Z,23.00
2022-07-25T18:47:51.705Z,22.70
2022-07-25T18:50:20.555Z,22.70
2022-07-25T18:52:47.855Z,22.40
2022-07-25T18:55:15.045Z,22.10
2022-07-25T18:57:42.418Z,22.10
2022-07-25T19:00:10.969Z,22.30
2022-07-25T19:02:38.136Z,22.20
2022-07-25T19:05:05.916Z,22.20
2022-07-25T19:07:35.135Z,22.00
2022-07-25T19:10:02.553Z,21.90
2022-07-25T19:12:30.794Z,21.90
2022-07-25T19:14:57.897Z,22.20
2022-07-25T19:17:25.140Z,22.00
2022-07-25T19:19:53.117Z,22.00
2022-07-25T19:22:21.011Z,22.00
2022-07-25T19:24:48.168Z,22.00
2022-07-25T19:27:16.718Z,22.00
2022-07-25T19:29:43.956Z,22.00
2022-07-25T19:32:11.218Z,21.90
2022-07-25T19:34:38.564Z,21.80
2022-07-25T19:37:06.165Z,21.80
2022-07-25T19:39:33.336Z,21.80
2022-07-25T19:42:01.734Z,21.80
2022-07-25T19:44:28.926Z,21.80
2022-07-25T19:46:57.176Z,21.90
2022-07-25T19:49:24.509Z,22.30
2022-07-25T19:51:51.691Z,22.30
2022-07-25T19:54:19.824Z,22.10
2022-07-25T19:56:47.087Z,22.10
2022-07-25T19:59:14.243Z,22.00
2022-07-25T20:01:41.783Z,22.30
2022-07-25T20:04:09.769Z,22.30
2022-07-25T20:06:37.334Z,22.10
2022-07-25T20:09:05.729Z,22.40
2022-07-25T20:11:33.068Z,22.70
2022-07-25T20:14:01.460Z,22.50
2022-07-25T20:16:28.830Z,22.50
2022-07-25T20:18:56.048Z,22.70
2022-07-25T20:21:23.426Z,22.50
2022-07-25T20:23:50.571Z,22.30
2022-07-25T20:26:17.762Z,22.40
2022-07-25T20:28:45.596Z,22.20
2022-07-25T20:31:13.048Z,22.10
2022-07-25T20:33:40.497Z,22.40
2022-07-25T20:36:07.961Z,22.50
2022-07-25T20:38:35.076Z,22.70
2022-07-25T20:41:02.285Z,22.70
2022-07-25T20:43:30.365Z,22.70
2022-07-25T20:45:58.069Z,22.50
2022-07-25T20:48:25.828Z,22.70
2022-07-25T20:50:53.245Z,22.50
2022-07-25T20:53:20.491Z,22.30
2022-07-25T20:55:47.600Z,22.20
2022-07-25T20:58:14.994Z,22.30
2022-07-25T21:00:42.604Z,22.30
2022-07-25T21:03:09.771Z,22.20
2022-07-25T21:05:40.536Z,22.20
2022-07-25T21:08:07.833Z,22.20
2022-07-25T21:10:35.193Z,22.10
2022-07-25T21:13:02.621Z,22.40
2022-07-25T21:15:31.002Z,22.30
2022-07-25T21:17:58.488Z,22.10
2022-07-25T21:20:26.125Z,22.20
2022-07-25T21:22:55.518Z,22.10
2022-07-25T21:25:23.072Z,22.20
2022-07-25T21:27:50.550Z,22.30
2022-07-25T21:30:17.857Z,22.30
2022-07-25T21:32:45.191Z,22.10
2022-07-25T21:35:12.495Z,22.00
2022-07-25T21:37:40.127Z,22.10
2022-07-25T21:40:08.092Z,22.00
2022-07-25T21:42:36.391Z,22.00
2022-07-25T21:45:04.890Z,21.90
2022-07-25T21:47:32.193Z,21.90
2022-07-25T21:50:24.423Z,21.90
2022-07-25T21:52:53.555Z,21.90
2022-07-25T21:55:21.714Z,21.90
2022-07-25T21:57:51.329Z,21.80
2022-07-25T22:00:19.274Z,21.80
2022-07-25T22:02:47.362Z,21.80
2022-07-25T22:05:15.914Z,21.10
2022-07-25T22:07:44.482Z,21.60
2022-07-25T22:10:13.403Z,21.70
2022-07-25T22:12:40.679Z,21.40
2022-07-25T22:15:12.076Z,21.50
2022-07-25T22:17:49.356Z,21.40
2022-07-25T22:20:19.399Z,21.40
2022-07-25T22:22:48.465Z,21.40
2022-07-25T22:25:16.385Z,21.40
2022-07-25T22:27:44.346Z,21.40
2022-07-25T22:30:18.009Z,21.30
2022-07-25T22:32:49.291Z,21.40
2022-07-25T22:35:17.034Z,21.40
2022-07-25T22:37:45.464Z,21.30
2022-07-25T22:40:13.575Z,21.40
2022-07-25T22:42:41.041Z,21.40
2022-07-25T22:45:08.957Z,21.40
2022-07-25T22:47:36.319Z,21.30
2022-07-25T22:50:04.695Z,21.30
2022-07-25T22:52:31.971Z,21.20
2022-07-25T22:54:59.072Z,21.10
2022-07-25T22:57:36.649Z,21.10
2022-07-25T23:00:08.298Z,21.20
2022-07-25T23:02:35.483Z,21.20
2022-07-25T23:05:03.122Z,21.20
2022-07-25T23:07:30.662Z,21.20
2022-07-25T23:09:58.025Z,21.20
2022-07-25T23:12:25.333Z,21.10
2022-07-25T23:14:52.403Z,21.10
2022-07-25T23:17:22.747Z,21.10
2022-07-25T23:19:52.232Z,21.20
2022-07-25T23:22:20.654Z,21.10
2022-07-25T23:24:47.972Z,21.00
2022-07-25T23:27:15.758Z,21.10
2022-07-25T23:29:43.160Z,21.10
2022-07-25T23:32:10.486Z,21.10
2022-07-25T23:34:37.609Z,21.00
2022-07-25T23:37:05.163Z,21.00
2022-07-25T23:39:33.596Z,21.00
2022-07-25T23:42:01.171Z,20.90
2022-07-25T23:44:29.056Z,20.90
2022-07-25T23:46:59.918Z,20.90
2022-07-25T23:49:28.827Z,20.90
2022-07-25T23:51:57.321Z,21.00
2022-07-25T23:54:25.086Z,20.90
2022-07-25T23:56:52.503Z,20.80
2022-07-25T23:59:20.100Z,20.80
